• Join FlightAware (Why Join?)
  • Login
  • US Flag GB Flag 
19:16 EDT


 

Airport Tracker/Info


-or-


 

Live Flight TrackerFlight Track Log ✈ EJM685 ✈ 09-Aug-2013 ✈ KDET - KFOK

Flight Track Log - Related Links

Times and Time Zones

All times are in EDT time to prevent confusion due to time zone crossing. See the EJM685 flight status page for this flight to view local times or setup timezone preferences in your user account.

Time Position Orientation Groundspeed Altitude Reporting Facility
EDT Latitude Longitude Course Direction KTS MPH feet Rate Location/Type
23:32 42.4239 -83.0247 348° North 151 174 1,700  Level Cleveland Center
23:33 42.4797 -83.0408 348° North 212 244 3,700 2,220 Climbing Cleveland Center
23:34 42.4669 -82.9533 101° East 221 254 6,500 3,180 Climbing Cleveland Center
23:35 42.4253 -82.8561 120° Southeast 216 249 10,200 3,180 Climbing Cleveland Center
23:36 42.4047 -82.7258 102° East 307 353 12,900 2,700 Climbing Cleveland Center
23:37 42.3844 -82.5789 101° East 346 398 15,600 2,700 Climbing Cleveland Center
23:38 42.3661 -82.4239 99° East 390 449 18,300 2,640 Climbing Cleveland Center
23:39 42.3583 -82.2550 94° East 418 481 20,900 2,520 Climbing Cleveland Center
23:40 42.3525 -82.0833 93° East 450 518 23,400 2,520 Climbing Cleveland Center
23:41 42.3442 -81.8978 93° East 474 545 26,000 2,340 Climbing Cleveland Center
23:42 42.3378 -81.7347 93° East 481 554 28,100 1,860 Climbing Cleveland Center
23:43 42.3289 -81.5492 94° East 492 566 29,800 1,560 Climbing Cleveland Center
23:44 42.3181 -81.3442 94° East 519 597 31,300 1,620 Climbing Cleveland Center
23:45 42.3089 -81.1392 93° East 544 626 33,100 2,040 Climbing Cleveland Center
23:46 42.2972 -80.9283 94° East 555 639 35,400 2,280 Climbing Cleveland Center
23:47 42.2831 -80.7067 95° East 555 639 37,700 2,100 Climbing Cleveland Center
23:48 42.2558 -80.5047 100° East 544 626 39,600 1,860 Climbing Cleveland Center
23:49 42.2286 -80.3083 101° East 538 619 41,500 1,620 Climbing Cleveland Center
23:50 42.2050 -80.1122 99° East 531 611 42,900 1,200 Climbing Cleveland Center
23:51 42.1811 -79.9386 100° East 525 604 43,900 1,020 Climbing Cleveland Center
23:52 42.1508 -79.7486 102° East 519 597 45,000 540 Climbing Cleveland Center
23:53 42.1264 -79.5558 100° East 519 597 45,000  Level Cleveland Center
23:54 42.0953 -79.3603 102° East 524 603 45,000  Level Cleveland Center
23:55 42.0681 -79.1650 101° East 529 609 45,000  Level Cleveland Center
23:56 42.0383 -78.9728 102° East 533 613 45,000  Level Cleveland Center
23:57 42.0083 -78.7722 101° East 533 613 45,000  Level Cleveland Center
23:58 41.9781 -78.5778 102° East 533 613 45,000  Level Cleveland Center
23:59 41.9494 -78.3858 101° East 527 606 45,000  Level Cleveland Center
00:00 41.9161 -78.1750 102° East 527 606 45,000  Level Cleveland Center
00:02 41.8419 -77.7731 104° East 523 602 45,000  Level New York Center
00:03 41.7942 -77.5900 109° East 523 602 45,000  Level New York Center
00:04 41.7464 -77.4044 109° East 528 608 45,000  Level New York Center
00:05 41.6961 -77.2217 110° East 522 601 45,000  Level New York Center
00:07 41.6433 -77.0607 109° East  Level FlightAware Approximate
00:07 41.5967 -76.8542 109° East 522 601 45,000  Level New York Center
00:08 41.5475 -76.6750 110° East 522 601 43,900 -1,740 Descending New York Center
00:09 41.4967 -76.4794 109° East 517 595 41,500 -2,580 Descending New York Center
00:10 41.4411 -76.2892 111° Southeast 532 612 38,900 -2,640 Descending New York Center
00:11 41.3897 -76.0942 109° East 544 626 36,400 -2,280 Descending New York Center
00:12 41.3406 -75.9328 112° Southeast 549 632 34,400 -2,280 Descending New York Center
00:13 41.2881 -75.7492 111° Southeast 535 616 31,900 -2,700 Descending New York Center
00:14 41.2233 -75.5458 113° Southeast 535 616 29,000 -2,580 Descending New York Center
00:15 41.1656 -75.3736 114° Southeast 524 603 26,700 -2,340 Descending New York Center
00:16 41.1097 -75.2047 114° Southeast 511 588 24,400 -1,920 Descending New York Center
00:17 41.0550 -75.0442 114° Southeast 490 564 23,000 -720 Descending New York Center
00:18 41.0047 -74.8817 112° Southeast 478 550 23,000 -360 Level New York Center
00:19 40.9792 -74.7125 101° East 473 544 22,300 -900 Descending New York Center
00:20 40.9597 -74.5436 99° East 467 537 21,300 -960 Descending New York Center
00:21 40.9439 -74.3781 97° East 461 531 20,400 -960 Descending New York Center
00:22 40.9258 -74.2233 99° East 446 513 19,500 -900 Descending New York Center
00:23 40.9167 -74.1500 99° East 403 464 19,100 -360 Descending New York TRACON
00:24 40.8333 -74.0500 138° Southeast 353 406 19,000 -840 Descending New York TRACON
00:25 40.7667 -73.9667 137° Southeast 350 403 17,500 -1,740 Descending New York TRACON
00:26 40.7000 -73.9000 143° Southeast 340 391 15,800 -1,740 Descending New York TRACON
00:27 40.6167 -73.8167 143° Southeast 384 442 14,200 -1,620 Descending New York TRACON
00:28 40.5500 -73.7333 136° Southeast 301 346 12,600 -1,740 Descending New York TRACON
00:29 40.4833 -73.6667 143° Southeast 314 361 10,800 -1,800 Descending New York TRACON
00:30 40.5000 -73.5500 79° East 317 365 9,100 -1,620 Descending New York TRACON
00:31 40.5167 -73.4500 78° East 306 352 7,800 -1,620 Descending New York TRACON
00:32 40.5497 -73.2783 76° East 294 338 5,100 -1,620 Descending New York Center
00:33 40.5828 -73.1867 65° Northeast 286 329 3,500 -1,560 Descending New York Center
00:34 40.6222 -73.0981 60° Northeast 273 314 2,000 -780 Descending New York Center
00:35 40.6592 -73.0172 59° Northeast 273 314 2,000  Level New York Center
00:36 40.7025 -72.9228 59° Northeast 273 314 2,000  Level New York Center
00:38 40.7500 -72.8000 63° Northeast 278 320 2,100  Climbing New York TRACON
00:39 40.8000 -72.7167 52° Northeast 275 316 2,100  Level New York TRACON
00:40 40.8500 -72.6667 37° Northeast 222 255 2,100  Level New York TRACON
00:41 40.9000 -72.6500 14° North 200 230 2,100  Level New York TRACON
00:42 40.9167 -72.6167 57° Northeast 206 237 2,100 -540 Level New York TRACON
00:43 40.8833 -72.5833 143° Southeast 171 197 1,100 -900 Descending New York TRACON
00:44 40.8500 -72.6167 217° Southwest 129 148 400 -360 Descending New York TRACON
00:45 40.8500 -72.6333 270° West 126 145 400  Level New York TRACON
00:47 40.8437 -72.6318 180° South  Level Estimated
00:54 40.8437 -72.6318 180° South  Level Estimated